Time;durP1;ratioP1;P1;durP2;ratioP2;P2;SDS_P1;SDS_P2;PMS_P1;PMS_P2;Temp;Humidity;BMP_temperature;BMP_pressure;BME280_temperature;BME280_humidity;BME280_pressure;Samples;Min_cycle;Max_cycle;Signal;HPM_P1;HPM_P2
2023/05/12 00:01:13;;;;;;;3.00;1.70;;;20.10;68.40;;;;;;5072075;28;20523;-69
2023/05/12 00:03:39;;;;;;;3.38;1.58;;;20.10;68.40;;;;;;5070155;28;20036;-69
2023/05/12 00:06:05;;;;;;;2.30;1.50;;;20.10;68.40;;;;;;5074661;28;20040;-69
2023/05/12 00:08:31;;;;;;;2.38;1.30;;;20.10;68.40;;;;;;5083302;28;20468;-68
2023/05/12 00:10:56;;;;;;;2.65;1.48;;;20.10;68.30;;;;;;5092432;28;20085;-70
2023/05/12 00:13:22;;;;;;;2.53;1.40;;;20.10;68.30;;;;;;5074667;28;20048;-68
2023/05/12 00:15:48;;;;;;;3.25;1.40;;;20.10;68.30;;;;;;5071090;28;20855;-69
2023/05/12 00:18:13;;;;;;;3.10;1.30;;;20.10;68.20;;;;;;5071689;28;20032;-70
2023/05/12 00:20:39;;;;;;;2.55;1.10;;;20.10;68.20;;;;;;5072340;28;20115;-70
2023/05/12 00:23:04;;;;;;;2.40;1.20;;;20.10;68.20;;;;;;5070680;28;20384;-70
2023/05/12 00:25:30;;;;;;;2.38;1.13;;;20.10;68.30;;;;;;5071385;28;20492;-69
2023/05/12 00:27:55;;;;;;;1.92;1.30;;;20.10;68.30;;;;;;5072218;28;20044;-69
2023/05/12 00:30:21;;;;;;;2.60;1.10;;;20.10;68.20;;;;;;5069588;28;20095;-69
2023/05/12 00:32:46;;;;;;;2.45;1.17;;;20.10;68.20;;;;;;5070878;28;20037;-69
2023/05/12 00:35:12;;;;;;;1.98;1.15;;;20.10;68.20;;;;;;5071558;28;20352;-69
2023/05/12 00:37:38;;;;;;;2.50;1.40;;;20.10;68.20;;;;;;5070990;28;20055;-69
2023/05/12 00:40:04;;;;;;;2.30;1.45;;;20.10;68.20;;;;;;5072195;28;20049;-69
2023/05/12 00:42:29;;;;;;;1.70;1.20;;;20.10;68.10;;;;;;5071551;28;20048;-69
2023/05/12 00:44:55;;;;;;;1.95;1.30;;;20.10;68.10;;;;;;5071088;28;20041;-70
2023/05/12 00:47:21;;;;;;;2.28;1.30;;;20.10;68.20;;;;;;5071830;28;20033;-69
2023/05/12 00:49:46;;;;;;;2.13;1.33;;;20.00;68.10;;;;;;5070325;28;20044;-69
2023/05/12 00:52:12;;;;;;;2.97;1.58;;;20.00;68.10;;;;;;5070887;28;20095;-69
2023/05/12 00:54:37;;;;;;;2.70;1.30;;;20.00;68.10;;;;;;5071863;28;20040;-69
2023/05/12 00:57:03;;;;;;;2.72;1.40;;;20.00;68.70;;;;;;5070483;28;20067;-68
2023/05/12 00:59:29;;;;;;;2.65;1.27;;;20.00;68.00;;;;;;5036073;28;20041;-69
2023/05/12 01:01:54;;;;;;;2.25;1.40;;;20.00;68.00;;;;;;5071858;28;20044;-68
2023/05/12 01:04:20;;;;;;;1.52;1.23;;;20.00;68.00;;;;;;5070139;28;20037;-69
2023/05/12 01:07:17;;;;;;;2.80;1.13;;;20.00;68.00;;;;;;5052806;28;20048;-68
2023/05/12 01:09:42;;;;;;;1.60;1.08;;;20.00;67.90;;;;;;5070851;28;20071;-69
2023/05/12 01:12:08;;;;;;;1.90;1.20;;;20.00;68.00;;;;;;5083266;28;20115;-69
2023/05/12 01:14:34;;;;;;;1.38;1.02;;;20.00;68.00;;;;;;5083672;28;20085;-69
2023/05/12 01:17:00;;;;;;;2.05;1.30;;;20.00;68.00;;;;;;5089284;28;20050;-69
2023/05/12 01:19:48;;;;;;;2.33;1.20;;;20.00;68.00;;;;;;5052549;28;20044;-69
2023/05/12 01:22:13;;;;;;;2.17;1.20;;;20.00;67.90;;;;;;5070949;28;20048;-69
2023/05/12 01:24:46;;;;;;;2.00;1.20;;;20.00;67.90;;;;;;5053527;28;20047;-69
2023/05/12 01:27:12;;;;;;;2.60;1.40;;;20.00;67.90;;;;;;5071060;28;20052;-70
2023/05/12 01:29:38;;;;;;;1.98;1.42;;;20.00;68.00;;;;;;5073813;28;20048;-69
2023/05/12 01:32:03;;;;;;;2.30;1.30;;;20.00;67.90;;;;;;5075110;28;20036;-69
2023/05/12 01:34:30;;;;;;;2.65;1.20;;;20.00;68.00;;;;;;5072850;28;20041;-69
2023/05/12 01:36:56;;;;;;;2.60;1.50;;;20.00;67.90;;;;;;5075244;28;20045;-70
2023/05/12 01:39:21;;;;;;;2.22;1.40;;;20.00;67.90;;;;;;5074468;28;20051;-69
2023/05/12 01:41:47;;;;;;;2.47;1.73;;;20.00;67.90;;;;;;5073884;28;20049;-69
2023/05/12 01:44:12;;;;;;;3.13;1.40;;;20.00;67.90;;;;;;5074263;28;20053;-69
2023/05/12 01:46:38;;;;;;;3.53;1.67;;;19.90;67.80;;;;;;5074837;28;20040;-69
2023/05/12 01:49:04;;;;;;;2.53;1.45;;;19.90;67.80;;;;;;5072917;28;20064;-69
2023/05/12 01:51:29;;;;;;;2.25;1.40;;;19.90;67.80;;;;;;5080446;28;20051;-69
2023/05/12 01:53:55;;;;;;;2.42;1.40;;;19.90;67.80;;;;;;5086456;28;20040;-70
2023/05/12 01:56:20;;;;;;;2.35;1.60;;;19.90;67.80;;;;;;5093863;28;20044;-69
2023/05/12 01:58:46;;;;;;;1.77;1.20;;;19.90;67.80;;;;;;5080727;28;20044;-69
2023/05/12 02:01:11;;;;;;;1.92;1.27;;;19.90;67.70;;;;;;5072847;28;20047;-70
2023/05/12 02:03:37;;;;;;;2.45;1.58;;;19.90;67.70;;;;;;5073126;28;20119;-69
2023/05/12 02:06:03;;;;;;;2.35;1.63;;;19.90;67.70;;;;;;5073778;28;20545;-69
2023/05/12 02:08:28;;;;;;;2.22;1.40;;;19.90;67.70;;;;;;5073497;28;20480;-69
2023/05/12 02:11:04;;;;;;;2.70;1.40;;;19.90;67.60;;;;;;5074624;28;20487;-70
2023/05/12 02:13:30;;;;;;;3.13;1.35;;;19.90;67.60;;;;;;5073751;28;20488;-69
2023/05/12 02:15:56;;;;;;;2.85;1.42;;;19.90;67.60;;;;;;5073649;28;20116;-70
2023/05/12 02:18:21;;;;;;;2.17;1.20;;;19.90;67.60;;;;;;5072594;28;20506;-70
2023/05/12 02:20:47;;;;;;;2.78;1.60;;;19.90;67.70;;;;;;5072905;28;20037;-70
2023/05/12 02:23:12;;;;;;;2.45;1.35;;;19.90;67.70;;;;;;5073016;28;20047;-70
2023/05/12 02:25:38;;;;;;;3.30;1.55;;;19.90;67.60;;;;;;5072420;28;20139;-70
2023/05/12 02:28:06;;;;;;;2.10;1.50;;;19.90;67.70;;;;;;5072649;28;20072;-70
2023/05/12 02:30:32;;;;;;;3.03;1.73;;;19.90;67.70;;;;;;5073158;28;20114;-70
2023/05/12 02:32:57;;;;;;;2.97;1.58;;;19.90;67.60;;;;;;5074068;28;20040;-70
2023/05/12 02:35:23;;;;;;;3.67;1.70;;;19.90;67.60;;;;;;5073773;28;20123;-70
2023/05/12 02:37:49;;;;;;;2.45;1.58;;;19.90;67.60;;;;;;5072029;28;20072;-69
2023/05/12 02:40:15;;;;;;;2.13;1.60;;;19.90;67.60;;;;;;5073481;28;20036;-69
2023/05/12 02:42:42;;;;;;;2.72;1.98;;;19.90;67.60;;;;;;5072567;28;20056;-69
2023/05/12 02:45:09;;;;;;;2.83;1.60;;;19.90;67.60;;;;;;5072515;28;20408;-70
2023/05/12 02:47:35;;;;;;;3.30;1.70;;;19.90;67.60;;;;;;5073278;28;20449;-70
2023/05/12 02:50:01;;;;;;;3.15;1.80;;;19.80;67.60;;;;;;5073781;28;20048;-69
2023/05/12 02:52:26;;;;;;;2.80;1.60;;;19.80;67.60;;;;;;5072532;28;20395;-69
2023/05/12 02:54:52;;;;;;;3.55;1.98;;;19.90;67.60;;;;;;5073204;28;20495;-69
2023/05/12 02:57:17;;;;;;;2.75;1.58;;;19.90;67.60;;;;;;5071225;28;20044;-70
2023/05/12 02:59:43;;;;;;;2.70;1.80;;;19.80;68.20;;;;;;5073223;28;20065;-69
2023/05/12 03:02:08;;;;;;;2.78;1.50;;;19.80;67.60;;;;;;5073316;28;20111;-70
2023/05/12 03:04:34;;;;;;;2.28;1.40;;;19.80;67.60;;;;;;5071391;28;20048;-69
2023/05/12 03:06:59;;;;;;;2.75;1.70;;;19.80;67.60;;;;;;5073081;28;20044;-70
2023/05/12 03:09:25;;;;;;;3.60;1.90;;;19.80;67.50;;;;;;5072544;28;20055;-69
2023/05/12 03:11:51;;;;;;;4.07;2.53;;;19.80;67.50;;;;;;5071156;28;20500;-69
2023/05/12 03:14:16;;;;;;;3.65;1.95;;;19.80;67.30;;;;;;5071711;28;20119;-69
2023/05/12 03:16:42;;;;;;;2.85;1.75;;;19.80;67.30;;;;;;5071635;28;20048;-69
2023/05/12 03:19:07;;;;;;;3.15;1.60;;;19.90;67.40;;;;;;5071681;28;20127;-70
2023/05/12 03:21:33;;;;;;;3.65;2.25;;;19.90;67.40;;;;;;5072929;28;20094;-70
2023/05/12 03:23:59;;;;;;;3.50;2.13;;;19.80;67.30;;;;;;5053454;28;20036;-70
2023/05/12 03:26:24;;;;;;;3.67;2.10;;;19.90;67.30;;;;;;5071661;28;20135;-70
2023/05/12 03:28:50;;;;;;;3.35;2.03;;;19.90;67.30;;;;;;5072887;28;20072;-69
2023/05/12 03:31:15;;;;;;;3.42;1.80;;;19.90;67.30;;;;;;5071084;28;20048;-70
2023/05/12 03:33:41;;;;;;;3.15;1.95;;;19.90;67.40;;;;;;5070603;28;20098;-69
2023/05/12 03:36:07;;;;;;;2.72;1.63;;;19.90;67.30;;;;;;5072519;28;20040;-69
2023/05/12 03:38:33;;;;;;;3.25;2.15;;;19.90;67.40;;;;;;5071464;28;20059;-69
2023/05/12 03:41:05;;;;;;;3.25;2.17;;;19.90;67.30;;;;;;5071953;28;20097;-69
2023/05/12 03:43:31;;;;;;;3.60;2.00;;;19.90;67.30;;;;;;5072369;28;20448;-69
2023/05/12 03:45:56;;;;;;;3.05;1.88;;;19.90;67.20;;;;;;5071418;28;20127;-70
2023/05/12 03:48:22;;;;;;;3.75;2.10;;;19.90;67.30;;;;;;5071054;28;20135;-69
2023/05/12 03:50:47;;;;;;;3.17;2.03;;;19.90;67.30;;;;;;5070925;28;20472;-69
2023/05/12 03:53:13;;;;;;;3.45;2.15;;;19.90;67.20;;;;;;5070907;28;20052;-69
2023/05/12 03:55:40;;;;;;;3.08;1.90;;;19.90;67.20;;;;;;5070347;28;20101;-69
2023/05/12 03:58:06;;;;;;;3.17;2.00;;;20.00;67.20;;;;;;5072535;28;20503;-69
2023/05/12 04:00:31;;;;;;;3.55;1.95;;;20.00;67.20;;;;;;5070326;28;20103;-69
2023/05/12 04:02:57;;;;;;;2.88;1.77;;;20.00;67.20;;;;;;5053891;28;20587;-70
2023/05/12 04:05:23;;;;;;;2.53;1.75;;;20.00;67.20;;;;;;5070726;28;20400;-69
2023/05/12 04:07:48;;;;;;;3.20;2.05;;;20.00;67.20;;;;;;5070898;28;20036;-69
2023/05/12 04:10:14;;;;;;;3.08;1.80;;;20.00;67.20;;;;;;5081616;28;20032;-69
2023/05/12 04:12:40;;;;;;;3.35;2.15;;;20.00;67.20;;;;;;5092458;28;20382;-69
2023/05/12 04:15:06;;;;;;;3.35;1.92;;;20.00;67.20;;;;;;5074292;28;20076;-69
2023/05/12 04:17:31;;;;;;;3.50;2.00;;;20.00;67.20;;;;;;5072245;28;20051;-69
2023/05/12 04:19:57;;;;;;;3.42;2.10;;;20.00;67.20;;;;;;5072075;28;20048;-69
2023/05/12 04:22:22;;;;;;;3.55;2.20;;;20.00;67.20;;;;;;5070974;28;20044;-70
2023/05/12 04:24:48;;;;;;;3.38;1.90;;;20.00;67.20;;;;;;5070599;28;20063;-70
2023/05/12 04:27:13;;;;;;;2.72;1.92;;;20.00;67.20;;;;;;5071006;28;20068;-70
2023/05/12 04:29:39;;;;;;;2.53;1.73;;;20.00;67.20;;;;;;5071365;28;20557;-70
2023/05/12 04:32:05;;;;;;;2.70;1.83;;;20.00;67.20;;;;;;5072222;28;20040;-70
2023/05/12 04:34:30;;;;;;;3.00;1.90;;;20.00;67.20;;;;;;5071947;28;20127;-70
2023/05/12 04:36:56;;;;;;;3.60;2.40;;;20.00;67.20;;;;;;5071468;28;20075;-69
2023/05/12 04:39:22;;;;;;;4.15;2.30;;;20.00;67.20;;;;;;5071904;28;20076;-70
2023/05/12 04:41:47;;;;;;;3.20;2.15;;;20.00;67.20;;;;;;5072072;28;20547;-70
2023/05/12 04:44:13;;;;;;;2.78;2.00;;;20.00;67.20;;;;;;5071067;28;20040;-70
2023/05/12 04:46:38;;;;;;;2.78;1.85;;;20.00;67.20;;;;;;5071804;28;20041;-69
2023/05/12 04:49:04;;;;;;;3.55;2.20;;;20.00;67.20;;;;;;5071616;28;20052;-70
2023/05/12 04:51:31;;;;;;;3.45;2.17;;;20.00;67.20;;;;;;5068252;28;20032;-69
2023/05/12 04:53:56;;;;;;;3.03;2.17;;;20.00;67.20;;;;;;5071952;28;20056;-70
2023/05/12 04:56:22;;;;;;;3.35;2.33;;;20.00;67.20;;;;;;5071779;28;20044;-69
2023/05/12 04:58:48;;;;;;;3.03;2.00;;;20.00;67.20;;;;;;5069977;28;20041;-69
2023/05/12 05:01:13;;;;;;;4.45;2.38;;;20.00;67.20;;;;;;5072130;28;20124;-70
2023/05/12 05:03:39;;;;;;;2.70;2.03;;;20.00;67.20;;;;;;5075359;28;20047;-70
2023/05/12 05:06:05;;;;;;;2.92;2.10;;;20.00;67.20;;;;;;5073279;28;20125;-70
2023/05/12 05:08:30;;;;;;;3.38;2.40;;;20.00;67.20;;;;;;5074376;28;20186;-70
2023/05/12 05:10:56;;;;;;;4.13;2.70;;;20.00;67.20;;;;;;5074995;28;20372;-70
2023/05/12 05:13:22;;;;;;;3.25;2.20;;;20.00;67.20;;;;;;5075503;28;20043;-70
2023/05/12 05:15:51;;;;;;;3.15;2.25;;;20.00;67.20;;;;;;5075303;28;20059;-70
2023/05/12 05:18:16;;;;;;;3.58;2.38;;;20.00;67.20;;;;;;5073011;28;20105;-70
2023/05/12 05:20:42;;;;;;;3.70;2.50;;;20.00;67.20;;;;;;5074033;28;20123;-70
2023/05/12 05:23:08;;;;;;;3.85;2.60;;;20.00;67.20;;;;;;5074986;28;20145;-70
2023/05/12 05:25:34;;;;;;;4.35;2.45;;;20.00;67.20;;;;;;5074283;28;20056;-70
2023/05/12 05:27:59;;;;;;;3.53;2.22;;;20.00;67.20;;;;;;5074958;28;20048;-70
2023/05/12 05:30:25;;;;;;;4.60;2.70;;;20.00;67.20;;;;;;5074750;28;20529;-70
2023/05/12 05:32:50;;;;;;;4.60;2.83;;;20.00;67.20;;;;;;5073175;28;20046;-70
2023/05/12 05:35:16;;;;;;;4.28;2.40;;;20.00;67.20;;;;;;5073264;28;20479;-70
2023/05/12 05:37:41;;;;;;;2.90;2.35;;;20.00;67.20;;;;;;5073710;28;20047;-70
2023/05/12 05:40:08;;;;;;;4.82;2.35;;;20.00;67.20;;;;;;5072620;28;20044;-70
2023/05/12 05:42:33;;;;;;;3.30;2.40;;;20.00;67.20;;;;;;5073591;28;20052;-70
2023/05/12 05:44:59;;;;;;;3.80;2.42;;;20.00;67.20;;;;;;5074727;28;20044;-71
2023/05/12 05:47:26;;;;;;;4.25;3.00;;;20.00;67.20;;;;;;5074044;28;20033;-70
2023/05/12 05:49:52;;;;;;;3.83;2.70;;;20.00;67.20;;;;;;5074274;28;20131;-70
2023/05/12 05:52:18;;;;;;;3.85;2.47;;;20.00;67.20;;;;;;5074585;28;20132;-70
2023/05/12 05:54:43;;;;;;;4.18;2.70;;;20.00;67.20;;;;;;5073791;28;20048;-69
2023/05/12 05:57:09;;;;;;;4.22;2.67;;;20.00;67.20;;;;;;5074656;28;20082;-69
2023/05/12 05:59:35;;;;;;;4.55;2.80;;;20.00;67.20;;;;;;5074775;28;20131;-69
2023/05/12 06:02:01;;;;;;;3.60;2.70;;;20.00;67.10;;;;;;5073690;28;20140;-69
2023/05/12 06:04:26;;;;;;;3.90;2.58;;;20.00;67.20;;;;;;5073997;28;20049;-70
2023/05/12 06:06:52;;;;;;;4.28;2.80;;;20.00;67.20;;;;;;5074399;28;20472;-66
2023/05/12 06:09:18;;;;;;;5.82;3.50;;;20.00;67.10;;;;;;5073531;28;20458;-68
2023/05/12 06:11:43;;;;;;;7.43;4.05;;;20.00;67.10;;;;;;5074419;28;20131;-67
2023/05/12 06:14:10;;;;;;;6.32;3.72;;;20.00;67.20;;;;;;5073612;28;20037;-68
2023/05/12 06:16:35;;;;;;;8.70;4.22;;;20.00;67.30;;;;;;5072379;28;20408;-68
2023/05/12 06:19:01;;;;;;;6.88;3.58;;;20.10;67.40;;;;;;5074454;28;20041;-69
2023/05/12 06:21:27;;;;;;;6.38;4.13;;;20.10;67.50;;;;;;5071934;28;20399;-68
2023/05/12 06:23:54;;;;;;;7.82;4.22;;;20.10;67.70;;;;;;5074430;28;20067;-68
2023/05/12 06:26:20;;;;;;;9.48;4.00;;;20.10;67.70;;;;;;5073777;28;20060;-68
2023/05/12 06:28:46;;;;;;;8.60;3.83;;;20.10;67.80;;;;;;5073587;28;20377;-68
2023/05/12 06:31:12;;;;;;;8.57;3.90;;;20.10;67.70;;;;;;5073768;28;20134;-68
2023/05/12 06:33:37;;;;;;;9.23;4.15;;;20.10;67.70;;;;;;5072449;28;20119;-72
2023/05/12 06:36:03;;;;;;;5.60;3.50;;;20.10;67.70;;;;;;5071974;28;20098;-71
2023/05/12 06:38:29;;;;;;;5.45;3.63;;;20.10;67.70;;;;;;5072912;28;20036;-71
2023/05/12 06:40:54;;;;;;;8.40;3.72;;;20.10;67.70;;;;;;5072244;28;20444;-70
2023/05/12 06:43:20;;;;;;;7.90;3.70;;;20.10;67.70;;;;;;5071188;28;20531;-71
2023/05/12 06:45:46;;;;;;;5.72;3.70;;;20.20;67.80;;;;;;5071043;28;20044;-68
2023/05/12 06:48:11;;;;;;;6.47;3.45;;;20.10;67.70;;;;;;5072811;28;20068;-69
2023/05/12 06:50:37;;;;;;;6.40;4.15;;;20.20;67.80;;;;;;5071861;28;20040;-67
2023/05/12 06:53:02;;;;;;;7.22;3.63;;;20.20;67.80;;;;;;5071274;28;20546;-69
2023/05/12 06:55:28;;;;;;;7.00;3.50;;;20.20;67.80;;;;;;5071650;28;20067;-68
2023/05/12 06:57:54;;;;;;;8.43;3.88;;;20.20;67.80;;;;;;5072599;28;20116;-72
2023/05/12 07:00:24;;;;;;;7.78;3.80;;;20.20;68.00;;;;;;5071677;28;20068;-71
2023/05/12 07:02:49;;;;;;;6.70;3.80;;;20.20;68.00;;;;;;5071023;28;20040;-73
2023/05/12 07:05:15;;;;;;;7.03;3.40;;;20.20;68.00;;;;;;5070803;28;20047;-71
2023/05/12 07:07:41;;;;;;;6.63;3.47;;;20.20;68.00;;;;;;5073232;28;20124;-73
2023/05/12 07:10:07;;;;;;;8.77;4.13;;;20.20;68.10;;;;;;5071333;28;20392;-71
2023/05/12 07:12:34;;;;;;;8.07;3.83;;;20.20;68.10;;;;;;5071300;28;20044;-70
2023/05/12 07:14:59;;;;;;;6.38;3.80;;;20.30;68.10;;;;;;5035338;28;20049;-71
2023/05/12 07:17:25;;;;;;;6.68;3.47;;;20.30;68.20;;;;;;5067937;28;20041;-70
2023/05/12 07:19:51;;;;;;;6.93;3.60;;;20.30;68.10;;;;;;5057816;28;20032;-71
2023/05/12 07:22:17;;;;;;;9.15;4.15;;;20.30;68.20;;;;;;5073549;28;20097;-70
2023/05/12 07:24:43;;;;;;;10.13;4.00;;;20.30;68.20;;;;;;5071116;28;20119;-70
2023/05/12 07:27:08;;;;;;;6.32;3.78;;;20.30;68.20;;;;;;5072659;28;20108;-71
2023/05/12 07:29:34;;;;;;;6.10;3.88;;;20.30;68.10;;;;;;5074030;28;20051;-70
2023/05/12 07:31:59;;;;;;;7.13;4.28;;;20.30;68.20;;;;;;5070074;28;20492;-70
2023/05/12 07:34:25;;;;;;;6.90;4.25;;;20.30;68.20;;;;;;5070852;28;20228;-69
2023/05/12 07:36:50;;;;;;;7.25;4.00;;;20.30;68.20;;;;;;5073201;28;20029;-72
2023/05/12 07:39:22;;;;;;;7.40;4.10;;;20.30;68.10;;;;;;5072238;28;20122;-69
2023/05/12 07:41:51;;;;;;;8.27;4.30;;;20.30;68.20;;;;;;5071996;28;20148;-70
2023/05/12 07:44:17;;;;;;;8.90;4.20;;;20.30;68.10;;;;;;5072755;28;20040;-72
2023/05/12 07:46:42;;;;;;;6.55;4.28;;;20.30;68.10;;;;;;5071999;28;20697;-70
2023/05/12 07:49:08;;;;;;;7.43;3.97;;;20.30;68.10;;;;;;5072689;28;20052;-71
2023/05/12 07:51:34;;;;;;;5.82;3.95;;;20.30;68.20;;;;;;5071285;28;20064;-71
2023/05/12 07:54:00;;;;;;;8.70;3.80;;;20.30;68.10;;;;;;5072459;28;20048;-71
2023/05/12 07:56:25;;;;;;;6.57;3.92;;;20.30;68.10;;;;;;5071536;28;20523;-69
2023/05/12 07:58:51;;;;;;;8.70;4.13;;;20.30;68.10;;;;;;5071478;28;20083;-69
2023/05/12 08:01:17;;;;;;;9.32;4.00;;;20.30;68.10;;;;;;5071136;28;20045;-69
2023/05/12 08:03:42;;;;;;;5.93;3.63;;;20.30;68.80;;;;;;5072615;28;20075;-68
2023/05/12 08:06:09;;;;;;;6.70;3.85;;;20.30;68.10;;;;;;5071565;28;20032;-70
2023/05/12 08:08:35;;;;;;;6.95;4.43;;;20.30;68.10;;;;;;5070205;28;20041;-69
2023/05/12 08:11:01;;;;;;;6.28;3.83;;;20.30;68.10;;;;;;5073052;28;20098;-69
2023/05/12 08:13:26;;;;;;;6.05;3.72;;;20.30;68.00;;;;;;5070969;28;20066;-70
2023/05/12 08:15:52;;;;;;;5.85;3.97;;;20.30;68.10;;;;;;5059448;28;20049;-70
2023/05/12 08:18:17;;;;;;;6.18;3.72;;;20.30;68.00;;;;;;5067679;28;20503;-69
2023/05/12 08:20:43;;;;;;;6.10;4.03;;;20.30;68.10;;;;;;5054685;28;20048;-70
2023/05/12 08:23:09;;;;;;;7.55;4.40;;;20.40;68.10;;;;;;5059042;28;20040;-69
2023/05/12 08:25:35;;;;;;;5.72;3.90;;;20.30;68.00;;;;;;5066241;28;20074;-69
2023/05/12 08:28:01;;;;;;;5.30;3.90;;;20.40;68.60;;;;;;5056275;28;20052;-70
2023/05/12 08:30:27;;;;;;;6.47;3.80;;;20.40;68.10;;;;;;5051724;28;20037;-69
2023/05/12 08:32:54;;;;;;;9.18;4.10;;;20.40;68.00;;;;;;5057342;28;20507;-70
2023/05/12 08:35:19;;;;;;;5.60;3.80;;;20.40;67.90;;;;;;5062071;28;20097;-70
2023/05/12 08:37:45;;;;;;;6.07;4.03;;;20.40;67.90;;;;;;5073801;28;20387;-70
2023/05/12 08:40:15;;;;;;;5.60;4.10;;;20.40;67.90;;;;;;5075054;28;20036;-71
2023/05/12 08:42:48;;;;;;;6.45;4.32;;;20.40;67.90;;;;;;5075267;28;20047;-72
2023/05/12 08:45:14;;;;;;;6.15;4.38;;;20.40;67.90;;;;;;5071683;28;20041;-73
2023/05/12 08:47:39;;;;;;;6.25;4.25;;;20.40;67.90;;;;;;5058473;28;20696;-73
2023/05/12 08:50:06;;;;;;;5.88;4.00;;;20.50;67.90;;;;;;5075697;28;20131;-72
2023/05/12 08:52:32;;;;;;;5.45;3.78;;;20.50;67.90;;;;;;5075888;28;20482;-73
2023/05/12 08:54:58;;;;;;;5.90;4.07;;;20.50;67.90;;;;;;5076543;28;20093;-71
2023/05/12 08:57:23;;;;;;;7.43;4.45;;;20.50;67.90;;;;;;5074991;28;20127;-72
2023/05/12 08:59:51;;;;;;;6.90;4.00;;;20.50;67.90;;;;;;5074730;28;20526;-72
2023/05/12 09:02:16;;;;;;;6.67;4.17;;;20.50;68.00;;;;;;5057866;28;20564;-73
2023/05/12 09:04:42;;;;;;;6.38;4.28;;;20.50;67.90;;;;;;5074114;28;20042;-72
2023/05/12 09:07:08;;;;;;;7.03;4.13;;;20.50;67.90;;;;;;5075140;28;20109;-71
2023/05/12 09:09:34;;;;;;;6.10;4.43;;;20.60;68.00;;;;;;5074342;28;20048;-71
2023/05/12 09:12:00;;;;;;;6.72;4.22;;;20.50;67.90;;;;;;5073329;28;20484;-75
2023/05/12 09:14:26;;;;;;;4.93;3.97;;;20.60;68.00;;;;;;5075168;28;20091;-73
2023/05/12 09:16:58;;;;;;;6.05;3.90;;;20.60;68.00;;;;;;5073941;28;20060;-73
2023/05/12 09:19:24;;;;;;;6.28;4.40;;;20.60;68.00;;;;;;5073671;28;20099;-74
2023/05/12 09:21:49;;;;;;;7.18;4.38;;;20.60;68.00;;;;;;5074636;28;20453;-76
2023/05/12 09:24:15;;;;;;;5.95;4.10;;;20.60;68.00;;;;;;5074684;28;20046;-75
2023/05/12 09:26:45;;;;;;;9.95;5.38;;;20.60;68.00;;;;;;5075426;28;20088;-73
2023/05/12 09:29:11;;;;;;;9.13;5.05;;;20.60;68.00;;;;;;5075495;28;20079;-71
2023/05/12 09:31:36;;;;;;;8.82;4.80;;;20.70;68.00;;;;;;5081457;28;20071;-74
2023/05/12 09:34:06;;;;;;;7.90;5.22;;;20.70;68.00;;;;;;5095285;28;20078;-73
2023/05/12 09:36:32;;;;;;;9.20;4.95;;;20.70;68.00;;;;;;5083587;28;20052;-67
2023/05/12 09:39:08;;;;;;;12.70;5.13;;;20.70;68.00;;;;;;5073896;28;20498;-68
2023/05/12 09:41:40;;;;;;;8.60;4.65;;;20.70;68.00;;;;;;5072485;28;20054;-82
2023/05/12 09:44:07;;;;;;;6.07;4.70;;;20.80;68.10;;;;;;5074835;28;20044;-70
2023/05/12 09:46:33;;;;;;;6.75;4.53;;;20.80;68.20;;;;;;5074013;28;20391;-68
2023/05/12 09:48:59;;;;;;;9.10;5.43;;;20.80;68.10;;;;;;5073998;28;20403;-68
2023/05/12 09:51:28;;;;;;;11.98;6.28;;;20.90;68.10;;;;;;5074377;28;20045;-65
2023/05/12 09:53:53;;;;;;;12.15;5.93;;;20.90;67.90;;;;;;5074171;28;20040;-67
2023/05/12 09:56:20;;;;;;;10.38;6.57;;;21.00;67.90;;;;;;5074596;28;20047;-65
2023/05/12 09:58:47;;;;;;;12.88;8.05;;;21.00;67.70;;;;;;5073641;28;20094;-66
2023/05/12 10:01:15;;;;;;;15.23;8.07;;;21.00;67.60;;;;;;5072111;28;20056;-66
2023/05/12 10:03:41;;;;;;;10.90;7.38;;;21.00;67.50;;;;;;5073664;28;20047;-68
2023/05/12 10:06:10;;;;;;;11.90;8.00;;;21.00;67.50;;;;;;5082088;28;20045;-68
2023/05/12 10:08:36;;;;;;;;;;;21.00;67.80;;;;;;5072922;28;20056;-69
2023/05/12 10:11:03;;;;;;;15.25;7.40;;;21.00;68.30;;;;;;5056348;28;20013;-68
2023/05/12 10:13:29;;;;;;;14.35;7.57;;;21.00;68.20;;;;;;5055616;28;20094;-68
2023/05/12 10:15:56;;;;;;;12.50;7.22;;;21.00;68.60;;;;;;5072821;28;20456;-67
2023/05/12 10:18:22;;;;;;;15.13;7.28;;;21.00;68.80;;;;;;5056315;28;20480;-68
2023/05/12 10:20:47;;;;;;;16.05;7.10;;;21.00;68.80;;;;;;5035452;28;20048;-67
2023/05/12 10:23:13;;;;;;;15.88;7.03;;;21.00;68.90;;;;;;5052620;28;20399;-66
2023/05/12 10:25:42;;;;;;;15.57;7.30;;;21.00;69.00;;;;;;5067408;28;20052;-66
2023/05/12 10:28:08;;;;;;;11.85;6.35;;;21.10;69.10;;;;;;5070754;28;20044;-68
2023/05/12 10:30:36;;;;;;;15.88;6.53;;;21.10;69.10;;;;;;5071970;28;20105;-66
2023/05/12 10:33:01;;;;;;;18.15;7.60;;;21.10;69.20;;;;;;5056201;28;20037;-67
2023/05/12 10:35:33;;;;;;;14.82;5.90;;;21.10;69.10;;;;;;5071077;28;20127;-68
2023/05/12 10:38:19;;;;;;;14.50;5.55;;;21.10;69.00;;;;;;5072641;28;20484;-67
2023/05/12 10:41:00;;;;;;;12.32;5.80;;;21.10;68.90;;;;;;5074132;28;20110;-68
2023/05/12 10:43:43;;;;;;;12.48;6.30;;;21.20;69.00;;;;;;5072250;28;20072;-67
2023/05/12 10:46:12;;;;;;;14.50;6.28;;;21.10;69.00;;;;;;5073715;28;20506;-67
2023/05/12 10:48:58;;;;;;;13.95;6.50;;;21.20;69.00;;;;;;5073285;28;20071;-68
2023/05/12 10:51:27;;;;;;;13.13;6.55;;;21.20;69.00;;;;;;5072331;28;20048;-67
2023/05/12 10:53:57;;;;;;;13.05;6.40;;;21.20;68.90;;;;;;5074041;28;20087;-67
2023/05/12 10:56:25;;;;;;;12.38;6.07;;;21.20;68.90;;;;;;5073031;28;20106;-67
2023/05/12 10:59:25;;;;;;;13.45;6.53;;;21.20;68.90;;;;;;5073307;28;20051;-67
2023/05/12 11:02:01;;;;;;;14.73;5.50;;;21.30;68.90;;;;;;5072410;28;20044;-67
2023/05/12 11:04:45;;;;;;;11.30;6.13;;;21.30;69.00;;;;;;5071211;28;20071;-67
2023/05/12 11:07:12;;;;;;;12.38;5.50;;;21.30;69.00;;;;;;5073242;28;20097;-67
2023/05/12 11:09:39;;;;;;;11.70;6.00;;;21.30;68.90;;;;;;5070585;28;20070;-67
2023/05/12 11:12:06;;;;;;;8.65;5.45;;;21.30;68.80;;;;;;5073454;28;20064;-73
2023/05/12 11:14:32;;;;;;;12.57;5.43;;;21.30;68.80;;;;;;5072928;28;20091;-69
2023/05/12 11:16:58;;;;;;;14.10;6.32;;;21.30;68.90;;;;;;5070907;28;20037;-66
2023/05/12 11:19:23;;;;;;;11.95;5.93;;;21.40;69.00;;;;;;5072656;28;20060;-67
2023/05/12 11:21:49;;;;;;;11.63;5.70;;;21.40;69.00;;;;;;5072913;28;20131;-67
2023/05/12 11:24:15;;;;;;;14.05;5.80;;;21.40;69.00;;;;;;5071741;28;20032;-67
2023/05/12 11:26:41;;;;;;;14.57;5.90;;;21.40;69.00;;;;;;5072465;28;20040;-67
2023/05/12 11:29:06;;;;;;;11.88;5.70;;;21.40;69.00;;;;;;5071419;28;20036;-67
2023/05/12 11:31:32;;;;;;;11.13;5.32;;;21.40;69.00;;;;;;5070756;28;20089;-67
2023/05/12 11:34:02;;;;;;;12.57;5.47;;;21.40;69.00;;;;;;5071803;28;20530;-67
2023/05/12 11:36:27;;;;;;;11.43;6.20;;;21.40;69.00;;;;;;5072745;28;20098;-67
2023/05/12 11:38:53;;;;;;;10.55;5.18;;;21.40;69.00;;;;;;5071942;28;20037;-67
2023/05/12 11:41:23;;;;;;;12.93;5.68;;;21.40;69.00;;;;;;5071071;28;20040;-68
2023/05/12 11:43:49;;;;;;;10.13;4.88;;;21.40;69.00;;;;;;5071496;28;20500;-67
2023/05/12 11:46:27;;;;;;;12.32;5.57;;;21.40;68.90;;;;;;5068203;28;20039;-67
2023/05/12 11:48:56;;;;;;;;;;;21.40;68.90;;;;;;5071792;28;20426;-67
2023/05/12 11:51:22;;;;;;;10.93;5.22;;;21.40;68.80;;;;;;5072234;28;19928;-67
2023/05/12 11:53:47;;;;;;;8.70;5.65;;;21.40;68.80;;;;;;5071888;28;20036;-67
2023/05/12 11:56:23;;;;;;;9.52;5.50;;;21.40;68.80;;;;;;5071931;28;20040;-66
2023/05/12 11:58:55;;;;;;;9.00;5.20;;;21.40;68.80;;;;;;5071034;28;20404;-66
2023/05/12 12:01:22;;;;;;;10.82;4.93;;;21.40;68.80;;;;;;5070179;28;20052;-66
2023/05/12 12:03:49;;;;;;;7.35;4.90;;;21.40;68.80;;;;;;5072645;28;20041;-66
2023/05/12 12:06:15;;;;;;;7.47;4.28;;;21.40;68.80;;;;;;5071447;28;20048;-66
2023/05/12 12:08:54;;;;;;;9.50;4.97;;;21.40;68.70;;;;;;5072433;28;20369;-66
2023/05/12 12:11:20;;;;;;;10.65;5.10;;;21.40;68.70;;;;;;5069729;28;20063;-66
2023/05/12 12:13:55;;;;;;;8.20;4.65;;;21.40;68.70;;;;;;5071440;28;20408;-66
2023/05/12 12:16:23;;;;;;;10.65;4.75;;;21.50;68.70;;;;;;5072231;28;20080;-66
2023/05/12 12:18:48;;;;;;;7.40;5.22;;;21.40;68.60;;;;;;5072572;28;20503;-66
2023/05/12 12:21:14;;;;;;;11.52;4.53;;;21.40;68.60;;;;;;5070197;28;20141;-66
2023/05/12 12:23:39;;;;;;;9.65;4.80;;;21.40;68.60;;;;;;5072386;28;20529;-67
2023/05/12 12:26:05;;;;;;;9.80;4.97;;;21.50;68.60;;;;;;5072360;28;20055;-67
2023/05/12 12:28:30;;;;;;;9.27;4.65;;;21.50;68.60;;;;;;5070521;28;20098;-67
2023/05/12 12:30:57;;;;;;;7.55;4.40;;;21.50;68.50;;;;;;5072423;28;20083;-66
2023/05/12 12:33:23;;;;;;;8.25;4.80;;;21.50;68.40;;;;;;5072312;28;20046;-67
2023/05/12 12:35:48;;;;;;;8.65;4.82;;;21.40;68.40;;;;;;5070175;28;20040;-66
2023/05/12 12:38:14;;;;;;;7.72;4.60;;;21.50;69.00;;;;;;5071996;28;20049;-66
2023/05/12 12:40:39;;;;;;;6.55;4.68;;;21.50;68.40;;;;;;5072672;28;20048;-67
2023/05/12 12:43:05;;;;;;;7.60;4.57;;;21.40;68.40;;;;;;5070367;28;20040;-67